createdAt,value
2023-05-12T00:01:39.446Z,100555.80
2023-05-12T00:04:13.506Z,100557.60
2023-05-12T00:06:50.972Z,100554.80
2023-05-12T00:09:25.225Z,100550.20
2023-05-12T00:11:59.531Z,100553.20
2023-05-12T00:14:33.827Z,100552.80
2023-05-12T00:17:09.916Z,100549.20
2023-05-12T00:19:44.553Z,100553.40
2023-05-12T00:22:18.748Z,100549.60
2023-05-12T00:24:52.840Z,100547.80
2023-05-12T00:27:27.023Z,100547.00
2023-05-12T00:30:01.279Z,100546.60
2023-05-12T00:32:35.394Z,100547.20
2023-05-12T00:35:11.459Z,100547.60
2023-05-12T00:37:46.021Z,100550.00
2023-05-12T00:40:20.605Z,100551.00
2023-05-12T00:42:55.109Z,100558.20
2023-05-12T00:45:30.359Z,100554.60
2023-05-12T00:48:05.328Z,100558.00
2023-05-12T00:50:39.752Z,100555.00
2023-05-12T00:53:14.653Z,100555.20
2023-05-12T00:55:49.026Z,100558.80
2023-05-12T00:58:24.608Z,100559.00
2023-05-12T01:00:58.852Z,100561.20
2023-05-12T01:03:33.911Z,100566.00
2023-05-12T01:06:17.796Z,100568.40
2023-05-12T01:08:53.393Z,100568.80
2023-05-12T01:11:28.026Z,100573.60
2023-05-12T01:14:02.310Z,100578.20
2023-05-12T01:16:44.455Z,100573.80
2023-05-12T01:19:39.628Z,100580.00
2023-05-12T01:22:15.116Z,100585.40
2023-05-12T01:24:56.318Z,100584.40
2023-05-12T01:27:33.115Z,100584.00
2023-05-12T01:30:11.204Z,100582.60
2023-05-12T01:32:45.620Z,100583.20
2023-05-12T01:35:20.509Z,100589.20
2023-05-12T01:38:02.462Z,100592.40
2023-05-12T01:40:36.942Z,100593.00
2023-05-12T01:43:11.077Z,100591.20
2023-05-12T01:45:45.234Z,100589.00
2023-05-12T01:48:19.654Z,100596.20
2023-05-12T01:50:53.700Z,100595.00
2023-05-12T01:53:28.907Z,100593.60
2023-05-12T01:56:03.229Z,100594.80
2023-05-12T01:58:38.359Z,100596.20
2023-05-12T02:01:15.018Z,100598.00
2023-05-12T02:03:49.448Z,100600.00
2023-05-12T02:06:24.100Z,100599.20
2023-05-12T02:08:58.254Z,100599.80
2023-05-12T02:11:32.372Z,100595.00
2023-05-12T02:14:06.709Z,100593.80
2023-05-12T02:16:41.474Z,100593.60
2023-05-12T02:19:15.653Z,100600.60
2023-05-12T02:21:49.772Z,100598.00
2023-05-12T02:24:23.976Z,100595.60
2023-05-12T02:26:58.370Z,100601.80
2023-05-12T02:29:32.685Z,100601.60
2023-05-12T02:32:07.866Z,100603.40
2023-05-12T02:34:41.991Z,100602.80
2023-05-12T02:37:16.528Z,100600.20
2023-05-12T02:39:51.050Z,100602.20
2023-05-12T02:42:28.950Z,100608.60
2023-05-12T02:45:03.982Z,100616.00
2023-05-12T02:47:38.143Z,100620.20
2023-05-12T02:50:13.957Z,100617.00
2023-05-12T02:52:48.111Z,100623.60
2023-05-12T02:55:22.578Z,100623.60
2023-05-12T02:57:56.727Z,100619.20
2023-05-12T03:00:31.115Z,100619.20
2023-05-12T03:03:05.380Z,100622.80
2023-05-12T03:05:39.701Z,100627.60
2023-05-12T03:08:13.887Z,100626.00
2023-05-12T03:10:47.999Z,100627.20
2023-05-12T03:13:22.457Z,100629.40
2023-05-12T03:16:01.363Z,100632.20
2023-05-12T03:18:36.020Z,100635.80
2023-05-12T03:21:10.628Z,100632.60
2023-05-12T03:23:44.837Z,100634.00
2023-05-12T03:26:19.640Z,100630.60
2023-05-12T03:28:53.938Z,100629.40
2023-05-12T03:31:28.176Z,100634.00
2023-05-12T03:34:02.450Z,100631.60
2023-05-12T03:36:37.507Z,100637.00
2023-05-12T03:39:12.337Z,100635.00
2023-05-12T03:41:46.616Z,100638.40
2023-05-12T03:44:20.828Z,100635.20
2023-05-12T03:46:55.161Z,100640.00
2023-05-12T03:49:29.277Z,100633.00
2023-05-12T03:52:03.478Z,100642.20
2023-05-12T03:54:38.003Z,100636.20
2023-05-12T03:57:13.375Z,100639.20
2023-05-12T03:59:47.530Z,100638.40
2023-05-12T04:02:22.239Z,100638.00
2023-05-12T04:04:56.495Z,100639.00
2023-05-12T04:07:30.830Z,100640.00
2023-05-12T04:10:05.445Z,100640.80
2023-05-12T04:12:39.595Z,100637.00
2023-05-12T04:15:15.909Z,100640.00
2023-05-12T04:17:51.181Z,100638.80
2023-05-12T04:20:25.971Z,100644.40
2023-05-12T04:23:00.258Z,100642.80
2023-05-12T04:25:34.418Z,100646.00
2023-05-12T04:28:11.848Z,100645.80
2023-05-12T04:30:47.072Z,100648.20
2023-05-12T04:33:21.199Z,100650.00
2023-05-12T04:36:00.885Z,100650.40
2023-05-12T04:38:35.080Z,100655.60
2023-05-12T04:41:09.459Z,100654.60
2023-05-12T04:46:21.282Z,100656.40
2023-05-12T04:48:56.354Z,100653.80
2023-05-12T04:51:32.191Z,100654.80
2023-05-12T04:54:06.679Z,100647.20
2023-05-12T04:56:40.996Z,100645.40
2023-05-12T04:59:15.963Z,100649.40
2023-05-12T05:01:51.445Z,100647.80
2023-05-12T05:04:25.926Z,100643.20
2023-05-12T05:07:00.114Z,100653.40
2023-05-12T05:09:36.439Z,100648.60
2023-05-12T05:12:13.297Z,100642.20
2023-05-12T05:14:47.789Z,100649.40
2023-05-12T05:17:22.414Z,100645.80
2023-05-12T05:19:59.314Z,100644.40
2023-05-12T05:22:39.829Z,100644.20
2023-05-12T05:25:15.430Z,100643.20
2023-05-12T05:27:52.153Z,100643.00
2023-05-12T05:30:27.104Z,100646.20
2023-05-12T05:33:01.405Z,100651.20
2023-05-12T05:35:36.604Z,100645.40
2023-05-12T05:38:10.763Z,100641.20
2023-05-12T05:40:53.051Z,100643.20
2023-05-12T05:43:30.156Z,100646.60
2023-05-12T05:46:04.993Z,100645.80
2023-05-12T05:48:39.429Z,100645.00
2023-05-12T05:51:16.944Z,100645.40
2023-05-12T05:53:51.541Z,100643.20
2023-05-12T05:56:26.251Z,100649.80
2023-05-12T05:59:03.217Z,100644.20
2023-05-12T06:01:37.882Z,100649.40
2023-05-12T06:04:12.539Z,100651.20
2023-05-12T06:06:47.227Z,100649.20
2023-05-12T06:09:21.599Z,100648.80
2023-05-12T06:11:56.856Z,100646.80
2023-05-12T06:14:31.206Z,100646.20
2023-05-12T06:17:06.030Z,100645.80
2023-05-12T06:19:40.863Z,100646.00
2023-05-12T06:22:15.361Z,100645.00
2023-05-12T06:24:49.960Z,100636.00
2023-05-12T06:27:24.240Z,100637.80
2023-05-12T06:30:01.319Z,100644.40
2023-05-12T06:32:36.058Z,100643.20
2023-05-12T06:35:12.606Z,100641.80
2023-05-12T06:37:49.884Z,100646.80
2023-05-12T06:40:24.451Z,100648.20
2023-05-12T06:42:59.281Z,100647.60
2023-05-12T06:45:35.296Z,100647.00
2023-05-12T06:48:10.851Z,100651.00
2023-05-12T06:50:46.715Z,100641.80
2023-05-12T06:53:23.377Z,100641.80
2023-05-12T06:56:01.790Z,100640.40
2023-05-12T06:58:36.549Z,100643.00
2023-05-12T07:01:13.527Z,100633.60
2023-05-12T07:03:49.273Z,100631.80
2023-05-12T07:06:24.436Z,100635.40
2023-05-12T07:08:58.916Z,100630.20
2023-05-12T07:11:33.595Z,100627.80
2023-05-12T07:14:08.051Z,100627.60
2023-05-12T07:16:42.545Z,100622.80
2023-05-12T07:19:16.755Z,100623.40
2023-05-12T07:21:51.025Z,100622.60
2023-05-12T07:24:25.535Z,100621.20
2023-05-12T07:26:59.992Z,100621.00
2023-05-12T07:29:34.550Z,100619.60
2023-05-12T07:32:09.658Z,100620.40
2023-05-12T07:34:44.242Z,100622.00
2023-05-12T07:37:18.639Z,100618.20
2023-05-12T07:39:52.962Z,100620.80
2023-05-12T07:42:28.064Z,100615.60
2023-05-12T07:45:02.416Z,100624.40
2023-05-12T07:47:37.001Z,100625.40
2023-05-12T07:50:12.293Z,100621.60
2023-05-12T07:52:54.554Z,100619.80
2023-05-12T07:55:30.571Z,100623.20
2023-05-12T07:58:05.510Z,100620.80
2023-05-12T08:00:40.608Z,100621.60
2023-05-12T08:03:18.018Z,100620.40
2023-05-12T08:05:52.450Z,100619.80
2023-05-12T08:08:27.106Z,100626.40
2023-05-12T08:11:04.021Z,100620.80
2023-05-12T08:13:41.066Z,100617.80
2023-05-12T08:16:20.231Z,100616.20
2023-05-12T08:18:55.853Z,100619.40
2023-05-12T08:21:32.534Z,100614.80
2023-05-12T08:24:07.799Z,100613.60
2023-05-12T08:26:42.456Z,100608.40
2023-05-12T08:29:17.323Z,100612.40
2023-05-12T08:31:52.128Z,100607.80
2023-05-12T08:34:27.336Z,100609.20
2023-05-12T08:37:01.823Z,100609.20
2023-05-12T08:39:36.258Z,100612.40
2023-05-12T08:42:38.735Z,100609.00
2023-05-12T08:45:16.104Z,100612.20
2023-05-12T08:47:51.499Z,100614.00
2023-05-12T08:50:29.997Z,100618.00
2023-05-12T08:53:06.425Z,100615.60
2023-05-12T08:55:53.308Z,100608.80
2023-05-12T08:58:40.830Z,100611.80
2023-05-12T09:01:18.279Z,100610.40
2023-05-12T09:03:54.615Z,100607.80
2023-05-12T09:06:29.051Z,100601.60
2023-05-12T09:09:04.630Z,100601.00
2023-05-12T09:11:39.216Z,100597.80
2023-05-12T09:14:20.340Z,100601.60
2023-05-12T09:17:01.469Z,100596.80
2023-05-12T09:19:35.960Z,100599.20
2023-05-12T09:22:15.177Z,100590.80
2023-05-12T09:24:50.152Z,100593.40
2023-05-12T09:27:30.916Z,100591.00
2023-05-12T09:30:05.763Z,100588.60
2023-05-12T09:32:41.172Z,100582.20
2023-05-12T09:35:16.382Z,100583.80
2023-05-12T09:37:51.674Z,100583.00
2023-05-12T09:40:26.429Z,100577.00
2023-05-12T09:43:02.186Z,100573.80
2023-05-12T09:45:40.376Z,100581.40
2023-05-12T09:48:16.687Z,100578.60
2023-05-12T09:50:54.732Z,100583.80
2023-05-12T09:53:29.310Z,100580.80
2023-05-12T09:56:04.654Z,100584.80
2023-05-12T09:58:43.276Z,100578.80
2023-05-12T10:01:23.962Z,100578.80
2023-05-12T10:04:00.995Z,100581.00
2023-05-12T10:06:43.249Z,100573.60
2023-05-12T10:09:25.409Z,100571.20
2023-05-12T10:12:02.108Z,100580.80
2023-05-12T10:14:37.330Z,100570.80
2023-05-12T10:17:14.813Z,100570.60
2023-05-12T10:19:50.918Z,100566.20
2023-05-12T10:22:27.970Z,100563.40
2023-05-12T10:25:03.935Z,100567.20
2023-05-12T10:27:38.779Z,100569.80
2023-05-12T10:30:17.593Z,100560.00
2023-05-12T10:32:53.193Z,100563.60
2023-05-12T10:35:37.970Z,100563.20
2023-05-12T10:38:13.875Z,100558.40
2023-05-12T10:40:59.354Z,100561.80
2023-05-12T10:43:43.649Z,100551.60
2023-05-12T10:46:24.673Z,100561.60
2023-05-12T10:49:03.785Z,100566.00
2023-05-12T10:51:50.990Z,100553.40
2023-05-12T10:54:30.060Z,100554.20
2023-05-12T10:57:04.709Z,100553.20
2023-05-12T10:59:48.871Z,100560.60
2023-05-12T11:02:30.291Z,100554.00
2023-05-12T11:05:13.767Z,100560.00
2023-05-12T11:07:54.585Z,100560.40
2023-05-12T11:10:33.369Z,100554.20
2023-05-12T11:13:08.637Z,100556.20
2023-05-12T11:15:45.144Z,100565.40
2023-05-12T11:18:25.350Z,100558.40
2023-05-12T11:20:59.946Z,100561.20
2023-05-12T11:23:34.209Z,100561.80
2023-05-12T11:26:17.837Z,100555.60
2023-05-12T11:28:52.597Z,100553.00
2023-05-12T11:31:27.233Z,100551.20
2023-05-12T11:34:12.811Z,100552.00
2023-05-12T11:36:48.939Z,100555.60
2023-05-12T11:39:24.978Z,100545.40
2023-05-12T11:42:12.844Z,100560.60
2023-05-12T11:44:55.603Z,100558.20
2023-05-12T11:47:31.784Z,100557.60
2023-05-12T11:50:10.388Z,100562.60
2023-05-12T11:52:44.720Z,100562.80
2023-05-12T11:55:25.732Z,100554.00
2023-05-12T11:58:05.703Z,100556.60
2023-05-12T12:00:40.389Z,100532.40
2023-05-12T12:03:18.998Z,100547.40
2023-05-12T12:06:07.260Z,100555.20
2023-05-12T12:08:52.843Z,100566.00
2023-05-12T12:11:29.480Z,100551.20
2023-05-12T12:14:05.035Z,100553.40
2023-05-12T12:16:39.755Z,100550.40
2023-05-12T12:19:14.894Z,100555.20
2023-05-12T12:21:49.220Z,100542.60
2023-05-12T12:24:23.907Z,100551.60
2023-05-12T12:26:59.036Z,100555.20
2023-05-12T12:29:33.466Z,100560.20
2023-05-12T12:32:09.902Z,100563.40
2023-05-12T12:34:45.084Z,100558.60
2023-05-12T12:37:20.971Z,100552.80
2023-05-12T12:39:55.507Z,100556.00
2023-05-12T12:42:30.276Z,100549.80
2023-05-12T12:45:05.464Z,100548.60
2023-05-12T12:47:40.147Z,100546.00
2023-05-12T12:50:15.373Z,100548.80
2023-05-12T12:52:50.350Z,100549.60
2023-05-12T12:55:25.984Z,100552.80
2023-05-12T12:58:02.590Z,100545.60
2023-05-12T13:00:37.804Z,100548.20
2023-05-12T13:03:14.843Z,100554.80
2023-05-12T13:05:51.737Z,100553.40
2023-05-12T13:08:28.922Z,100556.20
2023-05-12T13:11:04.148Z,100553.40
2023-05-12T13:13:38.904Z,100554.40
2023-05-12T13:16:13.399Z,100548.80
2023-05-12T13:18:48.148Z,100537.40
2023-05-12T13:21:35.525Z,100545.40
2023-05-12T13:24:10.817Z,100545.40
2023-05-12T13:26:48.979Z,100551.80
2023-05-12T13:29:23.597Z,100548.40
2023-05-12T13:31:58.025Z,100546.40
2023-05-12T13:34:32.464Z,100546.60
2023-05-12T13:37:07.003Z,100539.80
2023-05-12T13:39:41.943Z,100550.80
2023-05-12T13:42:17.154Z,100545.60
2023-05-12T13:44:53.118Z,100546.40
2023-05-12T13:47:27.734Z,100551.20
2023-05-12T13:50:02.265Z,100551.00
2023-05-12T13:52:36.965Z,100540.40
2023-05-12T13:55:18.633Z,100541.20
2023-05-12T13:57:56.241Z,100538.00
2023-05-12T14:00:32.315Z,100540.20
2023-05-12T14:03:06.580Z,100544.40
2023-05-12T14:05:42.293Z,100538.40
2023-05-12T14:08:16.683Z,100533.80
2023-05-12T14:10:51.433Z,100534.80
2023-05-12T14:13:26.503Z,100535.80
2023-05-12T14:16:00.848Z,100535.40
2023-05-12T14:18:35.559Z,100531.20
2023-05-12T14:21:10.302Z,100531.60
2023-05-12T14:23:44.601Z,100538.80
2023-05-12T14:26:19.388Z,100542.80
2023-05-12T14:28:54.073Z,100550.40
2023-05-12T14:31:28.405Z,100555.20
2023-05-12T14:34:25.918Z,100561.80
2023-05-12T14:37:00.614Z,100557.60
2023-05-12T14:39:35.011Z,100554.00
2023-05-12T14:42:11.435Z,100549.00
2023-05-12T14:44:45.713Z,100547.40
2023-05-12T14:47:20.739Z,100553.00
2023-05-12T14:49:55.005Z,100552.20
2023-05-12T14:52:29.713Z,100554.60
2023-05-12T14:55:04.167Z,100550.40
2023-05-12T14:57:38.931Z,100561.60
2023-05-12T15:00:16.671Z,100560.80
2023-05-12T15:02:54.750Z,100556.60
2023-05-12T15:05:52.585Z,100558.80
2023-05-12T15:08:25.302Z,100559.40
2023-05-12T15:12:48.640Z,100558.20
2023-05-12T15:15:24.289Z,100560.80
2023-05-12T15:17:59.180Z,100554.20
2023-05-12T15:20:33.748Z,100559.20
2023-05-12T15:23:09.544Z,100558.00
2023-05-12T15:25:45.255Z,100559.80
2023-05-12T15:28:21.042Z,100553.80
2023-05-12T15:31:00.765Z,100555.60
2023-05-12T15:33:35.192Z,100549.40
2023-05-12T15:36:12.211Z,100560.20
2023-05-12T15:38:47.364Z,100554.40
2023-05-12T15:41:22.283Z,100555.80
2023-05-12T15:43:56.518Z,100558.00
2023-05-12T15:46:31.112Z,100560.20
2023-05-12T15:49:05.502Z,100557.80
2023-05-12T15:51:46.625Z,100565.20
2023-05-12T15:54:21.794Z,100571.60
2023-05-12T15:56:55.974Z,100567.40
2023-05-12T15:59:32.651Z,100564.20
2023-05-12T16:02:07.757Z,100569.00
2023-05-12T16:04:42.251Z,100562.80
2023-05-12T16:07:16.654Z,100563.60
2023-05-12T16:09:51.236Z,100571.00
2023-05-12T16:12:25.704Z,100568.60
2023-05-12T16:15:00.222Z,100566.60
2023-05-12T16:17:34.928Z,100565.20
2023-05-12T16:20:12.436Z,100558.40
2023-05-12T16:22:47.662Z,100561.40
2023-05-12T16:25:23.537Z,100559.80
2023-05-12T16:27:58.758Z,100548.40
2023-05-12T16:30:33.979Z,100555.40
2023-05-12T16:33:08.842Z,100564.20
2023-05-12T16:35:43.814Z,100560.20
2023-05-12T16:38:18.199Z,100567.20
2023-05-12T16:40:52.699Z,100565.60
2023-05-12T16:43:27.053Z,100567.60
2023-05-12T16:46:10.438Z,100572.40
2023-05-12T16:48:44.793Z,100572.00
2023-05-12T16:51:21.062Z,100575.40
2023-05-12T16:53:55.367Z,100576.40
2023-05-12T16:56:30.548Z,100567.20
2023-05-12T16:59:05.238Z,100578.20
2023-05-12T17:01:40.534Z,100585.00
2023-05-12T17:04:15.716Z,100594.00
2023-05-12T17:06:51.421Z,100600.60
2023-05-12T17:09:26.047Z,100596.60
2023-05-12T17:12:00.591Z,100595.80
2023-05-12T17:14:36.027Z,100597.80
2023-05-12T17:17:12.092Z,100595.80
2023-05-12T17:19:46.816Z,100606.80
2023-05-12T17:22:21.488Z,100606.40
2023-05-12T17:24:55.990Z,100606.00
2023-05-12T17:27:30.649Z,100613.20
2023-05-12T17:30:06.466Z,100617.20
2023-05-12T17:32:41.551Z,100621.00
2023-05-12T17:35:16.785Z,100623.00
2023-05-12T17:37:55.659Z,100634.00
2023-05-12T17:40:30.642Z,100635.20
2023-05-12T17:43:05.120Z,100646.20
2023-05-12T17:45:40.838Z,100648.80
2023-05-12T17:48:15.303Z,100651.00
2023-05-12T17:50:49.810Z,100656.20
2023-05-12T17:53:24.240Z,100659.60
2023-05-12T17:55:58.941Z,100664.80
2023-05-12T17:58:33.260Z,100669.60
2023-05-12T18:01:07.664Z,100666.60
2023-05-12T18:03:42.282Z,100667.80
2023-05-12T18:06:17.181Z,100670.80
2023-05-12T18:08:52.296Z,100681.80
2023-05-12T18:11:29.239Z,100682.80
2023-05-12T18:14:06.132Z,100686.40
2023-05-12T18:16:41.181Z,100698.20
2023-05-12T18:19:15.953Z,100702.80
2023-05-12T18:21:52.009Z,100701.00
2023-05-12T18:24:26.370Z,100706.80
2023-05-12T18:27:01.408Z,100708.20
2023-05-12T18:29:36.270Z,100714.20
2023-05-12T18:32:11.239Z,100715.20
2023-05-12T18:34:47.246Z,100720.20
2023-05-12T18:37:21.960Z,100718.60
2023-05-12T18:39:58.547Z,100718.20
2023-05-12T18:42:33.106Z,100728.00
2023-05-12T18:45:10.247Z,100729.80
2023-05-12T18:47:44.665Z,100729.40
2023-05-12T18:50:20.267Z,100733.20
2023-05-12T18:52:56.704Z,100740.60
2023-05-12T18:55:33.137Z,100740.20
2023-05-12T18:58:07.545Z,100742.20
2023-05-12T19:00:41.928Z,100750.00
2023-05-12T19:03:16.752Z,100751.60
2023-05-12T19:05:52.996Z,100753.40
2023-05-12T19:08:28.330Z,100758.40
2023-05-12T19:11:02.946Z,100762.40
2023-05-12T19:13:42.532Z,100773.00
2023-05-12T19:16:17.134Z,100771.60
2023-05-12T19:18:51.950Z,100779.40
2023-05-12T19:21:28.818Z,100778.40
2023-05-12T19:24:03.042Z,100783.60
2023-05-12T19:26:38.295Z,100786.00
2023-05-12T19:29:12.587Z,100787.80
2023-05-12T19:31:47.390Z,100788.20
2023-05-12T19:34:22.202Z,100796.20
2023-05-12T19:37:00.918Z,100796.60
2023-05-12T19:39:35.496Z,100795.00
2023-05-12T19:42:10.892Z,100806.00
2023-05-12T19:44:45.310Z,100800.00
2023-05-12T19:47:22.042Z,100810.80
2023-05-12T19:49:57.172Z,100806.20
2023-05-12T19:52:31.903Z,100809.20
2023-05-12T19:55:07.236Z,100808.20
2023-05-12T19:57:42.444Z,100811.00
2023-05-12T20:00:19.249Z,100815.80
2023-05-12T20:02:53.902Z,100816.20
2023-05-12T20:05:28.615Z,100816.60
2023-05-12T20:08:03.000Z,100817.00
2023-05-12T20:10:37.962Z,100819.80
2023-05-12T20:13:12.661Z,100821.20
2023-05-12T20:15:47.675Z,100827.00
2023-05-12T20:18:23.818Z,100828.20
2023-05-12T20:20:59.080Z,100823.40
2023-05-12T20:23:33.996Z,100827.80
2023-05-12T20:26:08.534Z,100830.00
2023-05-12T20:28:43.039Z,100826.20
2023-05-12T20:31:17.781Z,100821.00
2023-05-12T20:33:52.105Z,100824.60
2023-05-12T20:36:28.002Z,100822.60
2023-05-12T20:39:02.316Z,100823.60
2023-05-12T20:41:36.921Z,100825.80
2023-05-12T20:44:11.346Z,100824.00
2023-05-12T20:46:45.719Z,100829.20
2023-05-12T20:49:20.233Z,100827.20
2023-05-12T20:51:54.559Z,100833.40
2023-05-12T20:54:29.674Z,100829.80
2023-05-12T20:57:04.032Z,100830.40
2023-05-12T20:59:38.669Z,100835.40
2023-05-12T21:02:13.325Z,100835.80
2023-05-12T21:04:48.262Z,100840.60
2023-05-12T21:07:22.760Z,100837.80
2023-05-12T21:09:58.301Z,100838.20
2023-05-12T21:12:33.327Z,100845.40
2023-05-12T21:15:10.716Z,100848.20
2023-05-12T21:17:45.281Z,100843.80
2023-05-12T21:20:19.758Z,100850.20
2023-05-12T21:22:54.422Z,100849.80
2023-05-12T21:25:28.877Z,100854.00
2023-05-12T21:28:03.344Z,100852.80
2023-05-12T21:30:37.914Z,100853.60
2023-05-12T21:33:12.461Z,100857.20
2023-05-12T21:35:47.015Z,100858.40
2023-05-12T21:38:22.017Z,100862.80
2023-05-12T21:40:56.567Z,100861.60
2023-05-12T21:43:31.048Z,100860.80
2023-05-12T21:46:08.638Z,100864.20
2023-05-12T21:48:48.119Z,100866.20
2023-05-12T21:51:22.545Z,100867.40
2023-05-12T21:53:57.428Z,100869.00
2023-05-12T21:56:32.276Z,100868.40
2023-05-12T21:59:07.635Z,100865.60
2023-05-12T22:01:42.408Z,100870.20
2023-05-12T22:04:17.271Z,100871.60
2023-05-12T22:06:51.973Z,100870.80
2023-05-12T22:09:29.145Z,100867.60
2023-05-12T22:12:05.567Z,100868.60
2023-05-12T22:14:40.626Z,100868.00
2023-05-12T22:17:15.412Z,100865.40
2023-05-12T22:19:53.159Z,100861.80
2023-05-12T22:22:27.820Z,100860.20
2023-05-12T22:25:02.195Z,100860.20
2023-05-12T22:27:37.426Z,100862.80
2023-05-12T22:30:16.035Z,100854.60
2023-05-12T22:32:52.650Z,100858.60
2023-05-12T22:35:27.550Z,100857.60
2023-05-12T22:38:03.559Z,100862.00
2023-05-12T22:40:37.745Z,100858.20
2023-05-12T22:43:12.853Z,100855.20
2023-05-12T22:45:50.289Z,100853.80
2023-05-12T22:48:25.005Z,100852.00
2023-05-12T22:51:01.867Z,100854.40
2023-05-12T22:53:36.293Z,100852.60
2023-05-12T22:56:11.517Z,100852.40
2023-05-12T22:58:46.005Z,100847.40
2023-05-12T23:01:20.324Z,100855.20
2023-05-12T23:03:54.832Z,100857.20
2023-05-12T23:06:29.527Z,100860.20
2023-05-12T23:09:04.089Z,100855.60
2023-05-12T23:11:38.307Z,100856.60
2023-05-12T23:14:12.820Z,100856.20
2023-05-12T23:16:48.112Z,100854.80
2023-05-12T23:19:22.260Z,100853.60
2023-05-12T23:21:57.510Z,100848.60
2023-05-12T23:24:31.907Z,100851.00
2023-05-12T23:27:06.500Z,100852.20
2023-05-12T23:29:40.624Z,100854.60
2023-05-12T23:32:14.794Z,100852.00
2023-05-12T23:34:49.329Z,100849.40
2023-05-12T23:37:24.548Z,100845.60
2023-05-12T23:39:58.727Z,100848.00
2023-05-12T23:42:32.829Z,100847.80
2023-05-12T23:45:08.745Z,100847.60
2023-05-12T23:47:43.491Z,100841.00
2023-05-12T23:50:17.862Z,100840.80
2023-05-12T23:52:53.506Z,100842.40
2023-05-12T23:55:28.078Z,100843.00
2023-05-12T23:58:02.528Z,100842.00
